CheckWX is a tool to help pilots better visualize weather data.  It is not intended as a substitute for an official pre-flight weather briefing.

22:43:19 UTC

19S METAR
Sublette Municipal Airport
Sublette, Kansas, USA
Current

28 mins ago

K19S 252215Z AUTO 00000KT 10SM OVC045 13/05 A3028 RMK AO2 T01280047
Observed
Mar-25 @ 22:15 UTC
Visibility
10 SM
Flight Rules
VFR
Cloud Levels
  • Overcast at 4,500' AGL
Temperature
13°C / 55°F
Dewpoint
C / 41°F
Humidity
59%
Altimeter
30.28" Hg
Pressure
1025.42 hPa
Previous

48 mins ago

K19S 252155Z AUTO 11003KT 10SM SCT038 OVC045 13/05 A3028 RMK AO2 T01290046
Observed
Mar-25 @ 21:55 UTC
Wind
  • 110° at 3 KTS
Visibility
10 SM
Flight Rules
VFR
Cloud Levels
  • Scattered at 3,800' AGL
  • Overcast at 4,500' AGL
Temperature
13°C / 55°F
Dewpoint
C / 41°F
Humidity
59%
Altimeter
30.28" Hg
Pressure
1025.42 hPa
Previous

1 hour ago

K19S 252135Z AUTO 14005KT 10SM BKN038 OVC047 12/04 A3028 RMK AO2 T01230044
Observed
Mar-25 @ 21:35 UTC
Wind
  • 140° at 5 KTS
Visibility
10 SM
Flight Rules
VFR
Cloud Levels
  • Broken at 3,800' AGL
  • Overcast at 4,700' AGL
Temperature
12°C / 54°F
Dewpoint
C / 39°F
Humidity
58%
Altimeter
30.28" Hg
Pressure
1025.42 hPa